sensor_id;sensor_type;location;lat;lon;timestamp;P1;durP1;ratioP1;P2;durP2;ratioP2
4202;SDS011;2115;51.038;7.006;2022-07-18T00:01:30;814.60;;;589.30;;
4202;SDS011;2115;51.038;7.006;2022-07-18T00:03:56;812.83;;;595.87;;
4202;SDS011;2115;51.038;7.006;2022-07-18T00:06:21;805.80;;;560.97;;
4202;SDS011;2115;51.038;7.006;2022-07-18T00:08:47;827.47;;;615.20;;
4202;SDS011;2115;51.038;7.006;2022-07-18T00:11:12;820.83;;;602.07;;
4202;SDS011;2115;51.038;7.006;2022-07-18T00:13:38;824.77;;;597.93;;
4202;SDS011;2115;51.038;7.006;2022-07-18T00:16:03;807.87;;;577.57;;
4202;SDS011;2115;51.038;7.006;2022-07-18T00:18:29;802.43;;;554.73;;
4202;SDS011;2115;51.038;7.006;2022-07-18T00:20:54;804.97;;;580.30;;
4202;SDS011;2115;51.038;7.006;2022-07-18T00:23:20;802.07;;;563.70;;
4202;SDS011;2115;51.038;7.006;2022-07-18T00:25:45;800.23;;;550.90;;
4202;SDS011;2115;51.038;7.006;2022-07-18T00:28:11;795.80;;;544.97;;
4202;SDS011;2115;51.038;7.006;2022-07-18T00:30:37;803.07;;;560.23;;
4202;SDS011;2115;51.038;7.006;2022-07-18T00:33:06;801.77;;;543.23;;
4202;SDS011;2115;51.038;7.006;2022-07-18T00:35:35;792.93;;;536.47;;
4202;SDS011;2115;51.038;7.006;2022-07-18T00:38:00;792.23;;;540.77;;
4202;SDS011;2115;51.038;7.006;2022-07-18T00:40:29;797.73;;;549.70;;
4202;SDS011;2115;51.038;7.006;2022-07-18T00:42:55;810.37;;;556.20;;
4202;SDS011;2115;51.038;7.006;2022-07-18T00:45:20;790.77;;;530.17;;
4202;SDS011;2115;51.038;7.006;2022-07-18T00:47:46;793.50;;;549.27;;
4202;SDS011;2115;51.038;7.006;2022-07-18T00:50:11;793.97;;;517.20;;
4202;SDS011;2115;51.038;7.006;2022-07-18T00:52:37;788.83;;;520.33;;
4202;SDS011;2115;51.038;7.006;2022-07-18T00:55:04;789.57;;;518.43;;
4202;SDS011;2115;51.038;7.006;2022-07-18T00:57:30;789.30;;;506.17;;
4202;SDS011;2115;51.038;7.006;2022-07-18T00:59:56;779.67;;;500.83;;
4202;SDS011;2115;51.038;7.006;2022-07-18T01:02:41;781.70;;;499.57;;
4202;SDS011;2115;51.038;7.006;2022-07-18T01:05:06;785.63;;;517.90;;
4202;SDS011;2115;51.038;7.006;2022-07-18T01:07:33;778.30;;;497.30;;
4202;SDS011;2115;51.038;7.006;2022-07-18T01:10:00;784.10;;;500.80;;
4202;SDS011;2115;51.038;7.006;2022-07-18T01:12:26;793.83;;;516.63;;
4202;SDS011;2115;51.038;7.006;2022-07-18T01:14:51;774.57;;;483.17;;
4202;SDS011;2115;51.038;7.006;2022-07-18T01:17:17;783.03;;;511.80;;
4202;SDS011;2115;51.038;7.006;2022-07-18T01:19:44;776.03;;;484.10;;
4202;SDS011;2115;51.038;7.006;2022-07-18T01:22:10;787.30;;;482.17;;
4202;SDS011;2115;51.038;7.006;2022-07-18T01:24:36;775.67;;;481.50;;
4202;SDS011;2115;51.038;7.006;2022-07-18T01:27:02;779.83;;;495.63;;
4202;SDS011;2115;51.038;7.006;2022-07-18T01:29:27;791.33;;;514.77;;
4202;SDS011;2115;51.038;7.006;2022-07-18T01:31:53;771.23;;;468.43;;
4202;SDS011;2115;51.038;7.006;2022-07-18T01:34:22;774.70;;;482.37;;
4202;SDS011;2115;51.038;7.006;2022-07-18T01:36:47;784.83;;;480.93;;
4202;SDS011;2115;51.038;7.006;2022-07-18T01:39:13;770.03;;;469.90;;
4202;SDS011;2115;51.038;7.006;2022-07-18T01:41:38;779.00;;;495.63;;
4202;SDS011;2115;51.038;7.006;2022-07-18T01:44:04;784.30;;;493.97;;
4202;SDS011;2115;51.038;7.006;2022-07-18T01:46:29;766.07;;;449.03;;
4202;SDS011;2115;51.038;7.006;2022-07-18T01:48:54;773.77;;;461.87;;
4202;SDS011;2115;51.038;7.006;2022-07-18T01:51:20;775.47;;;476.83;;
4202;SDS011;2115;51.038;7.006;2022-07-18T01:53:53;773.23;;;475.37;;
4202;SDS011;2115;51.038;7.006;2022-07-18T01:56:20;767.33;;;454.23;;
4202;SDS011;2115;51.038;7.006;2022-07-18T01:58:45;773.03;;;464.63;;
4202;SDS011;2115;51.038;7.006;2022-07-18T02:01:11;764.33;;;452.97;;
4202;SDS011;2115;51.038;7.006;2022-07-18T02:03:36;769.37;;;464.87;;
4202;SDS011;2115;51.038;7.006;2022-07-18T02:06:02;769.43;;;471.03;;
4202;SDS011;2115;51.038;7.006;2022-07-18T02:08:27;763.90;;;454.17;;
4202;SDS011;2115;51.038;7.006;2022-07-18T02:10:52;763.43;;;445.30;;
4202;SDS011;2115;51.038;7.006;2022-07-18T02:13:18;769.80;;;434.53;;
4202;SDS011;2115;51.038;7.006;2022-07-18T02:15:45;760.57;;;443.40;;
4202;SDS011;2115;51.038;7.006;2022-07-18T02:18:11;752.30;;;411.23;;
4202;SDS011;2115;51.038;7.006;2022-07-18T02:20:36;753.10;;;416.23;;
4202;SDS011;2115;51.038;7.006;2022-07-18T02:23:03;757.27;;;438.60;;
4202;SDS011;2115;51.038;7.006;2022-07-18T02:25:29;759.83;;;435.70;;
4202;SDS011;2115;51.038;7.006;2022-07-18T02:27:54;761.77;;;445.37;;
4202;SDS011;2115;51.038;7.006;2022-07-18T02:30:20;757.93;;;421.57;;
4202;SDS011;2115;51.038;7.006;2022-07-18T02:32:46;748.00;;;401.83;;
4202;SDS011;2115;51.038;7.006;2022-07-18T02:35:12;752.47;;;409.00;;
4202;SDS011;2115;51.038;7.006;2022-07-18T02:37:38;756.20;;;412.37;;
4202;SDS011;2115;51.038;7.006;2022-07-18T02:40:05;746.53;;;405.67;;
4202;SDS011;2115;51.038;7.006;2022-07-18T02:42:32;753.10;;;413.17;;
4202;SDS011;2115;51.038;7.006;2022-07-18T02:44:58;754.47;;;423.57;;
4202;SDS011;2115;51.038;7.006;2022-07-18T02:47:23;753.40;;;415.47;;
4202;SDS011;2115;51.038;7.006;2022-07-18T02:49:49;749.33;;;410.80;;
4202;SDS011;2115;51.038;7.006;2022-07-18T02:52:14;742.93;;;387.17;;
4202;SDS011;2115;51.038;7.006;2022-07-18T02:54:40;746.90;;;409.87;;
4202;SDS011;2115;51.038;7.006;2022-07-18T02:57:05;744.80;;;400.00;;
4202;SDS011;2115;51.038;7.006;2022-07-18T02:59:31;742.93;;;391.93;;
4202;SDS011;2115;51.038;7.006;2022-07-18T03:01:57;746.07;;;396.17;;
4202;SDS011;2115;51.038;7.006;2022-07-18T03:04:22;751.47;;;401.00;;
4202;SDS011;2115;51.038;7.006;2022-07-18T03:06:48;744.73;;;390.93;;
4202;SDS011;2115;51.038;7.006;2022-07-18T03:09:14;742.43;;;396.30;;
4202;SDS011;2115;51.038;7.006;2022-07-18T03:11:40;744.10;;;398.17;;
4202;SDS011;2115;51.038;7.006;2022-07-18T03:14:06;734.53;;;377.23;;
4202;SDS011;2115;51.038;7.006;2022-07-18T03:16:31;744.20;;;388.70;;
4202;SDS011;2115;51.038;7.006;2022-07-18T03:18:56;742.83;;;386.37;;
4202;SDS011;2115;51.038;7.006;2022-07-18T03:21:22;739.17;;;379.50;;
4202;SDS011;2115;51.038;7.006;2022-07-18T03:23:48;736.83;;;381.07;;
4202;SDS011;2115;51.038;7.006;2022-07-18T03:26:13;740.43;;;382.63;;
4202;SDS011;2115;51.038;7.006;2022-07-18T03:28:39;740.77;;;391.43;;
4202;SDS011;2115;51.038;7.006;2022-07-18T03:31:05;741.27;;;389.27;;
4202;SDS011;2115;51.038;7.006;2022-07-18T03:33:30;735.17;;;374.53;;
4202;SDS011;2115;51.038;7.006;2022-07-18T03:35:56;739.83;;;372.73;;
4202;SDS011;2115;51.038;7.006;2022-07-18T03:38:21;746.87;;;384.63;;
4202;SDS011;2115;51.038;7.006;2022-07-18T03:40:47;749.53;;;393.43;;
4202;SDS011;2115;51.038;7.006;2022-07-18T03:43:12;739.63;;;381.63;;
4202;SDS011;2115;51.038;7.006;2022-07-18T03:45:37;740.40;;;373.83;;
4202;SDS011;2115;51.038;7.006;2022-07-18T03:48:03;747.73;;;398.53;;
4202;SDS011;2115;51.038;7.006;2022-07-18T03:50:28;746.80;;;389.47;;
4202;SDS011;2115;51.038;7.006;2022-07-18T03:52:54;733.33;;;365.40;;
4202;SDS011;2115;51.038;7.006;2022-07-18T03:55:20;741.87;;;386.20;;
4202;SDS011;2115;51.038;7.006;2022-07-18T03:57:45;735.63;;;368.73;;
4202;SDS011;2115;51.038;7.006;2022-07-18T04:00:11;732.30;;;368.30;;
4202;SDS011;2115;51.038;7.006;2022-07-18T04:02:38;725.73;;;347.37;;
4202;SDS011;2115;51.038;7.006;2022-07-18T04:05:05;730.53;;;364.80;;
4202;SDS011;2115;51.038;7.006;2022-07-18T04:07:31;727.23;;;358.20;;
4202;SDS011;2115;51.038;7.006;2022-07-18T04:09:56;731.27;;;372.63;;
4202;SDS011;2115;51.038;7.006;2022-07-18T04:12:22;733.87;;;377.33;;
4202;SDS011;2115;51.038;7.006;2022-07-18T04:14:47;737.07;;;380.77;;
4202;SDS011;2115;51.038;7.006;2022-07-18T04:17:12;729.97;;;366.97;;
4202;SDS011;2115;51.038;7.006;2022-07-18T04:19:38;733.33;;;372.83;;
4202;SDS011;2115;51.038;7.006;2022-07-18T04:22:03;747.53;;;395.10;;
4202;SDS011;2115;51.038;7.006;2022-07-18T04:24:28;736.97;;;374.77;;
4202;SDS011;2115;51.038;7.006;2022-07-18T04:26:54;734.43;;;360.83;;
4202;SDS011;2115;51.038;7.006;2022-07-18T04:29:19;736.53;;;368.37;;
4202;SDS011;2115;51.038;7.006;2022-07-18T04:31:45;739.57;;;380.83;;
4202;SDS011;2115;51.038;7.006;2022-07-18T04:34:10;735.73;;;370.90;;
4202;SDS011;2115;51.038;7.006;2022-07-18T04:36:35;743.47;;;408.50;;
4202;SDS011;2115;51.038;7.006;2022-07-18T04:39:01;748.30;;;387.83;;
4202;SDS011;2115;51.038;7.006;2022-07-18T04:41:26;753.53;;;415.07;;
4202;SDS011;2115;51.038;7.006;2022-07-18T04:43:51;751.27;;;392.00;;
4202;SDS011;2115;51.038;7.006;2022-07-18T04:46:17;747.30;;;397.00;;
4202;SDS011;2115;51.038;7.006;2022-07-18T04:48:43;754.67;;;409.77;;
4202;SDS011;2115;51.038;7.006;2022-07-18T04:51:08;761.53;;;431.63;;
4202;SDS011;2115;51.038;7.006;2022-07-18T04:53:33;751.67;;;404.77;;
4202;SDS011;2115;51.038;7.006;2022-07-18T04:55:59;734.27;;;377.60;;
4202;SDS011;2115;51.038;7.006;2022-07-18T04:58:24;739.90;;;401.87;;
4202;SDS011;2115;51.038;7.006;2022-07-18T05:00:49;761.17;;;410.10;;
4202;SDS011;2115;51.038;7.006;2022-07-18T05:03:15;729.93;;;369.50;;
4202;SDS011;2115;51.038;7.006;2022-07-18T05:05:40;735.60;;;381.27;;
4202;SDS011;2115;51.038;7.006;2022-07-18T05:08:05;746.90;;;387.67;;
4202;SDS011;2115;51.038;7.006;2022-07-18T05:10:31;731.40;;;381.90;;
4202;SDS011;2115;51.038;7.006;2022-07-18T05:12:57;733.70;;;397.83;;
4202;SDS011;2115;51.038;7.006;2022-07-18T05:15:23;741.13;;;400.17;;
4202;SDS011;2115;51.038;7.006;2022-07-18T05:17:49;740.60;;;418.53;;
4202;SDS011;2115;51.038;7.006;2022-07-18T05:20:16;737.23;;;403.70;;
4202;SDS011;2115;51.038;7.006;2022-07-18T05:22:43;751.33;;;424.10;;
4202;SDS011;2115;51.038;7.006;2022-07-18T05:25:09;749.03;;;439.63;;
4202;SDS011;2115;51.038;7.006;2022-07-18T05:27:35;736.70;;;408.00;;
4202;SDS011;2115;51.038;7.006;2022-07-18T05:30:01;755.93;;;442.50;;
4202;SDS011;2115;51.038;7.006;2022-07-18T05:32:29;744.87;;;427.93;;
4202;SDS011;2115;51.038;7.006;2022-07-18T05:34:54;749.53;;;447.70;;
4202;SDS011;2115;51.038;7.006;2022-07-18T05:37:20;754.90;;;451.63;;
4202;SDS011;2115;51.038;7.006;2022-07-18T05:39:45;748.20;;;436.20;;
4202;SDS011;2115;51.038;7.006;2022-07-18T05:42:11;754.63;;;460.87;;
4202;SDS011;2115;51.038;7.006;2022-07-18T05:44:36;747.30;;;440.53;;
4202;SDS011;2115;51.038;7.006;2022-07-18T05:47:01;750.07;;;448.10;;
4202;SDS011;2115;51.038;7.006;2022-07-18T05:49:27;749.93;;;455.70;;
4202;SDS011;2115;51.038;7.006;2022-07-18T05:51:52;765.03;;;478.43;;
4202;SDS011;2115;51.038;7.006;2022-07-18T05:56:45;761.93;;;490.57;;
4202;SDS011;2115;51.038;7.006;2022-07-18T05:59:14;757.07;;;477.53;;
4202;SDS011;2115;51.038;7.006;2022-07-18T06:01:39;767.80;;;528.33;;
4202;SDS011;2115;51.038;7.006;2022-07-18T06:04:05;764.23;;;517.33;;
4202;SDS011;2115;51.038;7.006;2022-07-18T06:06:30;764.30;;;519.33;;
4202;SDS011;2115;51.038;7.006;2022-07-18T06:08:56;764.37;;;525.63;;
4202;SDS011;2115;51.038;7.006;2022-07-18T06:11:21;773.00;;;540.77;;
4202;SDS011;2115;51.038;7.006;2022-07-18T06:13:47;771.10;;;526.23;;
4202;SDS011;2115;51.038;7.006;2022-07-18T06:16:12;775.43;;;550.67;;
4202;SDS011;2115;51.038;7.006;2022-07-18T06:18:37;774.43;;;546.50;;
4202;SDS011;2115;51.038;7.006;2022-07-18T06:21:03;776.07;;;547.83;;
4202;SDS011;2115;51.038;7.006;2022-07-18T06:23:29;780.50;;;562.97;;
4202;SDS011;2115;51.038;7.006;2022-07-18T06:25:54;785.10;;;582.97;;
4202;SDS011;2115;51.038;7.006;2022-07-18T06:28:20;772.27;;;557.57;;
4202;SDS011;2115;51.038;7.006;2022-07-18T06:30:46;792.30;;;563.57;;
4202;SDS011;2115;51.038;7.006;2022-07-18T06:33:11;786.53;;;585.13;;
4202;SDS011;2115;51.038;7.006;2022-07-18T06:35:38;779.47;;;575.83;;
4202;SDS011;2115;51.038;7.006;2022-07-18T06:38:04;781.43;;;598.57;;
4202;SDS011;2115;51.038;7.006;2022-07-18T06:40:30;782.50;;;587.70;;
4202;SDS011;2115;51.038;7.006;2022-07-18T06:42:56;794.13;;;621.53;;
4202;SDS011;2115;51.038;7.006;2022-07-18T06:45:21;788.30;;;604.87;;
4202;SDS011;2115;51.038;7.006;2022-07-18T06:47:47;778.83;;;585.97;;
4202;SDS011;2115;51.038;7.006;2022-07-18T06:50:12;786.87;;;605.40;;
4202;SDS011;2115;51.038;7.006;2022-07-18T06:52:39;785.90;;;611.77;;
4202;SDS011;2115;51.038;7.006;2022-07-18T06:55:05;781.80;;;595.50;;
4202;SDS011;2115;51.038;7.006;2022-07-18T06:57:31;779.20;;;589.27;;
4202;SDS011;2115;51.038;7.006;2022-07-18T06:59:56;794.57;;;620.80;;
4202;SDS011;2115;51.038;7.006;2022-07-18T07:02:22;800.90;;;640.17;;
4202;SDS011;2115;51.038;7.006;2022-07-18T07:04:47;790.70;;;627.50;;
4202;SDS011;2115;51.038;7.006;2022-07-18T07:07:12;794.80;;;650.40;;
4202;SDS011;2115;51.038;7.006;2022-07-18T07:09:38;782.07;;;600.23;;
4202;SDS011;2115;51.038;7.006;2022-07-18T07:12:03;783.13;;;614.90;;
4202;SDS011;2115;51.038;7.006;2022-07-18T07:14:28;824.43;;;644.63;;
4202;SDS011;2115;51.038;7.006;2022-07-18T07:16:54;782.67;;;608.80;;
4202;SDS011;2115;51.038;7.006;2022-07-18T07:19:19;784.70;;;610.20;;
4202;SDS011;2115;51.038;7.006;2022-07-18T07:21:44;790.33;;;635.23;;
4202;SDS011;2115;51.038;7.006;2022-07-18T07:24:10;788.57;;;634.63;;
4202;SDS011;2115;51.038;7.006;2022-07-18T07:26:35;789.50;;;637.97;;
4202;SDS011;2115;51.038;7.006;2022-07-18T07:29:01;793.73;;;643.40;;
4202;SDS011;2115;51.038;7.006;2022-07-18T07:31:26;795.00;;;661.13;;
4202;SDS011;2115;51.038;7.006;2022-07-18T07:33:52;797.53;;;665.77;;
4202;SDS011;2115;51.038;7.006;2022-07-18T07:36:17;794.47;;;659.77;;
4202;SDS011;2115;51.038;7.006;2022-07-18T07:38:43;795.53;;;662.30;;
4202;SDS011;2115;51.038;7.006;2022-07-18T07:41:08;798.67;;;675.33;;
4202;SDS011;2115;51.038;7.006;2022-07-18T07:43:33;808.17;;;707.73;;
4202;SDS011;2115;51.038;7.006;2022-07-18T07:46:01;808.27;;;703.13;;
4202;SDS011;2115;51.038;7.006;2022-07-18T07:48:27;805.10;;;699.30;;
4202;SDS011;2115;51.038;7.006;2022-07-18T07:50:52;811.70;;;698.30;;
4202;SDS011;2115;51.038;7.006;2022-07-18T07:53:17;800.47;;;682.47;;
4202;SDS011;2115;51.038;7.006;2022-07-18T07:55:43;815.90;;;723.50;;
4202;SDS011;2115;51.038;7.006;2022-07-18T07:58:08;837.00;;;745.93;;
4202;SDS011;2115;51.038;7.006;2022-07-18T08:00:34;809.73;;;711.80;;
4202;SDS011;2115;51.038;7.006;2022-07-18T08:03:01;856.63;;;764.27;;
4202;SDS011;2115;51.038;7.006;2022-07-18T08:05:28;854.30;;;762.70;;
4202;SDS011;2115;51.038;7.006;2022-07-18T08:07:56;843.83;;;752.33;;
4202;SDS011;2115;51.038;7.006;2022-07-18T08:10:22;844.70;;;753.40;;
4202;SDS011;2115;51.038;7.006;2022-07-18T08:12:48;861.70;;;769.30;;
4202;SDS011;2115;51.038;7.006;2022-07-18T08:15:13;842.17;;;750.80;;
4202;SDS011;2115;51.038;7.006;2022-07-18T08:17:38;869.03;;;777.03;;
4202;SDS011;2115;51.038;7.006;2022-07-18T08:20:04;851.13;;;759.53;;
4202;SDS011;2115;51.038;7.006;2022-07-18T08:22:30;865.17;;;773.00;;
4202;SDS011;2115;51.038;7.006;2022-07-18T08:24:55;856.90;;;764.97;;
4202;SDS011;2115;51.038;7.006;2022-07-18T08:27:21;834.50;;;743.93;;
4202;SDS011;2115;51.038;7.006;2022-07-18T08:29:46;892.97;;;799.67;;
4202;SDS011;2115;51.038;7.006;2022-07-18T08:32:11;877.83;;;785.63;;
4202;SDS011;2115;51.038;7.006;2022-07-18T08:34:38;886.97;;;794.37;;
4202;SDS011;2115;51.038;7.006;2022-07-18T08:37:03;870.67;;;778.37;;
4202;SDS011;2115;51.038;7.006;2022-07-18T08:39:28;911.73;;;818.23;;
4202;SDS011;2115;51.038;7.006;2022-07-18T08:41:54;873.90;;;781.23;;
4202;SDS011;2115;51.038;7.006;2022-07-18T08:44:20;889.07;;;796.50;;
4202;SDS011;2115;51.038;7.006;2022-07-18T08:46:48;886.53;;;792.67;;
4202;SDS011;2115;51.038;7.006;2022-07-18T08:49:15;878.20;;;786.50;;
4202;SDS011;2115;51.038;7.006;2022-07-18T08:51:41;877.13;;;783.67;;
4202;SDS011;2115;51.038;7.006;2022-07-18T08:54:07;892.03;;;799.73;;
4202;SDS011;2115;51.038;7.006;2022-07-18T08:56:33;887.57;;;795.33;;
4202;SDS011;2115;51.038;7.006;2022-07-18T08:59:01;885.47;;;793.50;;
4202;SDS011;2115;51.038;7.006;2022-07-18T09:01:28;919.43;;;825.93;;
4202;SDS011;2115;51.038;7.006;2022-07-18T09:03:54;875.83;;;783.63;;
4202;SDS011;2115;51.038;7.006;2022-07-18T09:06:42;930.07;;;835.37;;
4202;SDS011;2115;51.038;7.006;2022-07-18T09:09:15;918.80;;;825.93;;
4202;SDS011;2115;51.038;7.006;2022-07-18T09:11:51;912.43;;;819.13;;
4202;SDS011;2115;51.038;7.006;2022-07-18T09:14:41;924.00;;;829.13;;
4202;SDS011;2115;51.038;7.006;2022-07-18T09:19:36;925.57;;;831.80;;
4202;SDS011;2115;51.038;7.006;2022-07-18T09:22:16;916.13;;;823.07;;
4202;SDS011;2115;51.038;7.006;2022-07-18T09:24:49;961.00;;;865.90;;
4202;SDS011;2115;51.038;7.006;2022-07-18T09:27:23;915.00;;;821.90;;
4202;SDS011;2115;51.038;7.006;2022-07-18T09:32:37;980.37;;;885.00;;
4202;SDS011;2115;51.038;7.006;2022-07-18T09:35:04;947.20;;;852.87;;
4202;SDS011;2115;51.038;7.006;2022-07-18T09:37:30;981.20;;;886.07;;
4202;SDS011;2115;51.038;7.006;2022-07-18T09:40:13;960.23;;;865.93;;
4202;SDS011;2115;51.038;7.006;2022-07-18T09:42:40;968.10;;;873.53;;
4202;SDS011;2115;51.038;7.006;2022-07-18T09:45:05;982.70;;;887.43;;
4202;SDS011;2115;51.038;7.006;2022-07-18T09:47:31;957.83;;;863.33;;
4202;SDS011;2115;51.038;7.006;2022-07-18T09:49:56;974.20;;;879.83;;
4202;SDS011;2115;51.038;7.006;2022-07-18T09:52:22;977.40;;;882.60;;
4202;SDS011;2115;51.038;7.006;2022-07-18T09:54:47;1010.50;;;912.80;;
4202;SDS011;2115;51.038;7.006;2022-07-18T09:57:23;996.43;;;901.33;;
4202;SDS011;2115;51.038;7.006;2022-07-18T09:59:49;983.50;;;888.93;;
4202;SDS011;2115;51.038;7.006;2022-07-18T10:02:15;1005.63;;;909.97;;
4202;SDS011;2115;51.038;7.006;2022-07-18T10:04:40;995.67;;;899.80;;
4202;SDS011;2115;51.038;7.006;2022-07-18T10:07:06;1005.30;;;909.43;;
4202;SDS011;2115;51.038;7.006;2022-07-18T10:09:31;1008.23;;;912.23;;
4202;SDS011;2115;51.038;7.006;2022-07-18T10:11:57;1009.20;;;913.60;;
4202;SDS011;2115;51.038;7.006;2022-07-18T10:14:23;1025.47;;;929.30;;
4202;SDS011;2115;51.038;7.006;2022-07-18T10:16:51;1018.67;;;922.67;;
4202;SDS011;2115;51.038;7.006;2022-07-18T10:19:17;1014.17;;;919.00;;
4202;SDS011;2115;51.038;7.006;2022-07-18T10:21:45;1031.13;;;934.17;;
4202;SDS011;2115;51.038;7.006;2022-07-18T10:24:12;1026.43;;;930.37;;
4202;SDS011;2115;51.038;7.006;2022-07-18T10:26:37;1043.33;;;945.53;;
4202;SDS011;2115;51.038;7.006;2022-07-18T10:31:29;1041.40;;;944.07;;
4202;SDS011;2115;51.038;7.006;2022-07-18T10:36:30;1035.17;;;938.53;;
4202;SDS011;2115;51.038;7.006;2022-07-18T10:39:08;1041.50;;;946.03;;
4202;SDS011;2115;51.038;7.006;2022-07-18T10:47:05;1034.03;;;939.53;;
4202;SDS011;2115;51.038;7.006;2022-07-18T10:57:42;1033.60;;;939.93;;
4202;SDS011;2115;51.038;7.006;2022-07-18T11:18:23;1043.97;;;951.50;;
4202;SDS011;2115;51.038;7.006;2022-07-18T11:20:49;1064.53;;;970.27;;
4202;SDS011;2115;51.038;7.006;2022-07-18T11:23:16;1072.83;;;979.57;;
4202;SDS011;2115;51.038;7.006;2022-07-18T11:25:48;1062.77;;;968.77;;
4202;SDS011;2115;51.038;7.006;2022-07-18T11:28:15;1056.70;;;964.70;;
4202;SDS011;2115;51.038;7.006;2022-07-18T11:30:41;1029.43;;;940.03;;
4202;SDS011;2115;51.038;7.006;2022-07-18T11:33:19;1042.77;;;950.00;;
4202;SDS011;2115;51.038;7.006;2022-07-18T11:35:47;1062.60;;;970.03;;
4202;SDS011;2115;51.038;7.006;2022-07-18T11:38:13;1044.97;;;951.70;;
4202;SDS011;2115;51.038;7.006;2022-07-18T11:40:48;1062.30;;;969.43;;
4202;SDS011;2115;51.038;7.006;2022-07-18T11:43:20;1052.88;;;960.42;;
4202;SDS011;2115;51.038;7.006;2022-07-18T11:46:05;1081.90;;;988.67;;
4202;SDS011;2115;51.038;7.006;2022-07-18T11:48:32;1050.55;;;959.15;;
4202;SDS011;2115;51.038;7.006;2022-07-18T11:50:58;1025.38;;;935.72;;
4202;SDS011;2115;51.038;7.006;2022-07-18T11:53:24;1005.13;;;919.22;;
4202;SDS011;2115;51.038;7.006;2022-07-18T11:55:50;998.20;;;912.22;;
4202;SDS011;2115;51.038;7.006;2022-07-18T11:58:15;997.70;;;912.40;;
4202;SDS011;2115;51.038;7.006;2022-07-18T12:00:42;647.88;;;601.47;;
4202;SDS011;2115;51.038;7.006;2022-07-18T12:03:13;1026.03;;;937.83;;
4202;SDS011;2115;51.038;7.006;2022-07-18T12:05:41;1037.18;;;949.60;;
4202;SDS011;2115;51.038;7.006;2022-07-18T12:19:13;980.03;;;895.70;;
4202;SDS011;2115;51.038;7.006;2022-07-18T12:24:37;985.65;;;900.97;;
4202;SDS011;2115;51.038;7.006;2022-07-18T12:32:21;985.25;;;902.97;;
4202;SDS011;2115;51.038;7.006;2022-07-18T12:34:55;992.20;;;906.63;;
4202;SDS011;2115;51.038;7.006;2022-07-18T12:37:25;974.42;;;895.55;;
4202;SDS011;2115;51.038;7.006;2022-07-18T12:39:58;984.65;;;900.42;;
4202;SDS011;2115;51.038;7.006;2022-07-18T12:42:33;2.70;;;1.70;;
4202;SDS011;2115;51.038;7.006;2022-07-18T12:44:59;4.90;;;1.30;;
4202;SDS011;2115;51.038;7.006;2022-07-18T12:47:25;2.70;;;1.70;;
4202;SDS011;2115;51.038;7.006;2022-07-18T12:49:50;3.28;;;1.35;;
4202;SDS011;2115;51.038;7.006;2022-07-18T12:52:17;2.45;;;1.48;;
4202;SDS011;2115;51.038;7.006;2022-07-18T12:54:43;5.60;;;1.70;;
4202;SDS011;2115;51.038;7.006;2022-07-18T12:57:08;4.80;;;1.17;;
4202;SDS011;2115;51.038;7.006;2022-07-18T12:59:33;6.45;;;1.48;;
4202;SDS011;2115;51.038;7.006;2022-07-18T13:01:59;2.42;;;1.60;;
4202;SDS011;2115;51.038;7.006;2022-07-18T13:04:24;3.00;;;1.17;;
4202;SDS011;2115;51.038;7.006;2022-07-18T13:06:49;2.97;;;1.30;;
4202;SDS011;2115;51.038;7.006;2022-07-18T13:09:15;2.70;;;1.63;;
4202;SDS011;2115;51.038;7.006;2022-07-18T13:11:40;4.03;;;1.50;;
4202;SDS011;2115;51.038;7.006;2022-07-18T13:14:08;3.58;;;1.58;;
4202;SDS011;2115;51.038;7.006;2022-07-18T13:16:33;3.83;;;1.27;;
4202;SDS011;2115;51.038;7.006;2022-07-18T13:18:59;4.13;;;1.38;;
4202;SDS011;2115;51.038;7.006;2022-07-18T13:21:24;2.85;;;1.45;;
4202;SDS011;2115;51.038;7.006;2022-07-18T13:23:49;1.90;;;1.42;;
4202;SDS011;2115;51.038;7.006;2022-07-18T13:26:15;3.30;;;1.25;;
4202;SDS011;2115;51.038;7.006;2022-07-18T13:28:40;2.97;;;1.13;;
4202;SDS011;2115;51.038;7.006;2022-07-18T13:31:05;4.63;;;1.38;;
4202;SDS011;2115;51.038;7.006;2022-07-18T13:33:31;7.20;;;1.92;;
4202;SDS011;2115;51.038;7.006;2022-07-18T13:35:56;2.67;;;1.38;;
4202;SDS011;2115;51.038;7.006;2022-07-18T13:38:21;1.70;;;1.40;;
4202;SDS011;2115;51.038;7.006;2022-07-18T13:40:47;2.65;;;1.25;;
4202;SDS011;2115;51.038;7.006;2022-07-18T13:43:12;4.38;;;1.10;;
4202;SDS011;2115;51.038;7.006;2022-07-18T13:45:37;3.08;;;1.30;;
4202;SDS011;2115;51.038;7.006;2022-07-18T13:48:03;6.43;;;1.70;;
4202;SDS011;2115;51.038;7.006;2022-07-18T13:50:29;7.25;;;1.67;;
4202;SDS011;2115;51.038;7.006;2022-07-18T13:52:56;3.65;;;1.50;;
4202;SDS011;2115;51.038;7.006;2022-07-18T13:55:22;4.28;;;1.70;;
4202;SDS011;2115;51.038;7.006;2022-07-18T13:57:47;7.70;;;1.40;;
4202;SDS011;2115;51.038;7.006;2022-07-18T14:00:13;5.18;;;1.23;;
4202;SDS011;2115;51.038;7.006;2022-07-18T14:02:38;4.50;;;1.15;;
4202;SDS011;2115;51.038;7.006;2022-07-18T14:05:04;3.45;;;1.52;;
4202;SDS011;2115;51.038;7.006;2022-07-18T14:07:30;2.40;;;1.33;;
4202;SDS011;2115;51.038;7.006;2022-07-18T14:09:55;2.70;;;1.45;;
4202;SDS011;2115;51.038;7.006;2022-07-18T14:12:20;6.50;;;1.48;;
4202;SDS011;2115;51.038;7.006;2022-07-18T14:14:46;5.60;;;1.23;;
4202;SDS011;2115;51.038;7.006;2022-07-18T14:17:11;4.65;;;1.08;;
4202;SDS011;2115;51.038;7.006;2022-07-18T14:19:37;3.30;;;1.50;;
4202;SDS011;2115;51.038;7.006;2022-07-18T14:22:02;5.45;;;1.15;;
4202;SDS011;2115;51.038;7.006;2022-07-18T14:24:28;7.13;;;1.70;;
4202;SDS011;2115;51.038;7.006;2022-07-18T14:26:53;5.88;;;1.85;;
4202;SDS011;2115;51.038;7.006;2022-07-18T14:29:19;6.38;;;1.38;;
4202;SDS011;2115;51.038;7.006;2022-07-18T14:31:44;3.88;;;1.50;;
4202;SDS011;2115;51.038;7.006;2022-07-18T14:34:09;9.60;;;1.40;;
4202;SDS011;2115;51.038;7.006;2022-07-18T14:36:35;3.40;;;1.15;;
4202;SDS011;2115;51.038;7.006;2022-07-18T14:39:00;5.85;;;1.23;;
4202;SDS011;2115;51.038;7.006;2022-07-18T14:41:25;2.55;;;1.13;;
4202;SDS011;2115;51.038;7.006;2022-07-18T14:43:51;4.65;;;2.08;;
4202;SDS011;2115;51.038;7.006;2022-07-18T14:46:16;2.97;;;1.48;;
4202;SDS011;2115;51.038;7.006;2022-07-18T14:48:42;4.80;;;1.17;;
4202;SDS011;2115;51.038;7.006;2022-07-18T14:51:07;3.88;;;1.50;;
4202;SDS011;2115;51.038;7.006;2022-07-18T14:53:32;3.55;;;1.48;;
4202;SDS011;2115;51.038;7.006;2022-07-18T14:55:59;7.57;;;1.38;;
4202;SDS011;2115;51.038;7.006;2022-07-18T14:58:24;4.53;;;1.40;;
4202;SDS011;2115;51.038;7.006;2022-07-18T15:00:50;8.90;;;1.30;;
4202;SDS011;2115;51.038;7.006;2022-07-18T15:03:15;4.40;;;1.20;;
4202;SDS011;2115;51.038;7.006;2022-07-18T15:05:41;4.28;;;1.10;;
4202;SDS011;2115;51.038;7.006;2022-07-18T15:08:07;9.10;;;1.52;;
4202;SDS011;2115;51.038;7.006;2022-07-18T15:10:32;4.30;;;1.35;;
4202;SDS011;2115;51.038;7.006;2022-07-18T15:12:58;2.13;;;1.25;;
4202;SDS011;2115;51.038;7.006;2022-07-18T15:15:23;7.93;;;1.13;;
4202;SDS011;2115;51.038;7.006;2022-07-18T15:17:50;5.88;;;1.55;;
4202;SDS011;2115;51.038;7.006;2022-07-18T15:20:15;13.82;;;1.40;;
4202;SDS011;2115;51.038;7.006;2022-07-18T15:22:42;6.72;;;1.38;;
4202;SDS011;2115;51.038;7.006;2022-07-18T15:25:08;2.55;;;1.50;;
4202;SDS011;2115;51.038;7.006;2022-07-18T15:27:33;1.75;;;1.10;;
4202;SDS011;2115;51.038;7.006;2022-07-18T15:29:59;1.58;;;0.85;;